Terminal Aerodrome Forecast
Issued by NWS

Current Version | Previous Version | Text Only | Print | Product List | Glossary On
Versions: 1 2 3 4 5 6 7 8 9 10 11 12
000
FTUS44 KEPZ 010548
TAFTCS
TAF
KTCS 010548Z 0106/0206 18006KT 2SM HZ FEW005 SCT250
     FM010800 18006KT P6SM FEW080 SCT250
     FM012100 16006KT P6SM SCT080 BKN130 BKN250
     FM020400 20006KT P6SM FEW130 SCT250=

USA.gov is the U.S. government's official web portal to all federal, state and local government web resources and services.